createdAt,value
2023-02-07T00:00:01.674Z,-4.94
2023-02-07T00:01:01.642Z,-4.94
2023-02-07T00:02:01.679Z,-5.06
2023-02-07T00:03:01.711Z,-5.39
2023-02-07T00:04:01.642Z,-5.56
2023-02-07T00:05:01.694Z,-5.72
2023-02-07T00:06:01.646Z,-6.11
2023-02-07T00:07:01.646Z,-6.11
2023-02-07T00:08:01.654Z,-5.83
2023-02-07T00:09:01.656Z,-6.28
2023-02-07T00:10:01.712Z,-5.83
2023-02-07T00:11:01.656Z,-5.72
2023-02-07T00:12:01.644Z,-6
2023-02-07T00:13:01.647Z,-6.11
2023-02-07T00:14:01.655Z,-6.11
2023-02-07T00:15:01.644Z,-6.72
2023-02-07T00:16:01.663Z,-5.83
2023-02-07T00:17:01.657Z,-6.61
2023-02-07T00:18:01.641Z,-6.28
2023-02-07T00:19:01.657Z,-6.11
2023-02-07T00:20:01.674Z,-6.11
2023-02-07T00:21:01.682Z,-6.28
2023-02-07T00:22:01.653Z,-6.61
2023-02-07T00:23:01.660Z,-6.28
2023-02-07T00:24:01.654Z,-6.28
2023-02-07T00:25:01.655Z,-6.61
2023-02-07T00:26:01.652Z,-6.28
2023-02-07T00:27:01.654Z,-6.72
2023-02-07T00:28:01.794Z,-6.61
2023-02-07T00:29:01.672Z,-6.61
2023-02-07T00:30:01.666Z,-7.06
2023-02-07T00:31:01.760Z,-7.06
2023-02-07T00:32:01.657Z,-7.17
2023-02-07T00:33:01.673Z,-6.72
2023-02-07T00:34:01.663Z,-6.72
2023-02-07T00:35:01.682Z,-6.44
2023-02-07T00:36:01.677Z,-6.61
2023-02-07T00:37:01.702Z,-6.61
2023-02-07T00:38:01.671Z,-6.11
2023-02-07T00:39:01.683Z,-6.11
2023-02-07T00:40:01.669Z,-6.72
2023-02-07T00:41:01.665Z,-6.11
2023-02-07T00:42:01.670Z,-6.28
2023-02-07T00:43:01.670Z,-5.56
2023-02-07T00:44:01.695Z,-6
2023-02-07T00:45:01.666Z,-6.11
2023-02-07T00:46:01.755Z,-6.28
2023-02-07T00:47:01.670Z,-6.61
2023-02-07T00:48:01.678Z,-7.06
2023-02-07T00:49:01.685Z,-6.72
2023-02-07T00:50:01.673Z,-7.17
2023-02-07T00:51:01.675Z,-6.61
2023-02-07T00:52:01.677Z,-7.17
2023-02-07T00:53:01.697Z,-7.33
2023-02-07T00:54:01.701Z,-6.89
2023-02-07T00:55:01.685Z,-6.89
2023-02-07T00:56:01.686Z,-6.89
2023-02-07T00:57:01.673Z,-6.89
2023-02-07T00:58:01.670Z,-7.17
2023-02-07T00:59:01.686Z,-7.06
2023-02-07T01:00:01.679Z,-7.17
2023-02-07T01:01:01.733Z,-7.33
2023-02-07T01:02:01.693Z,-7.17
2023-02-07T01:03:01.688Z,-7.17
2023-02-07T01:04:01.682Z,-6.89
2023-02-07T01:05:01.751Z,-6.89
2023-02-07T01:06:01.699Z,-6.28
2023-02-07T01:07:01.705Z,-6.28
2023-02-07T01:08:01.695Z,-6.11
2023-02-07T01:09:01.716Z,-6.28
2023-02-07T01:10:01.690Z,-6.61
2023-02-07T01:11:01.692Z,-7.06
2023-02-07T01:12:01.695Z,-7.33
2023-02-07T01:13:01.703Z,-7.17
2023-02-07T01:14:01.686Z,-7.44
2023-02-07T01:15:01.685Z,-7.44
2023-02-07T01:16:01.749Z,-7.44
2023-02-07T01:17:01.691Z,-7.44
2023-02-07T01:18:01.698Z,-7.83
2023-02-07T01:19:01.717Z,-7.83
2023-02-07T01:20:01.724Z,-7.17
2023-02-07T01:21:01.712Z,-7.17
2023-02-07T01:22:01.689Z,-7.17
2023-02-07T01:23:01.708Z,-6.72
2023-02-07T01:24:01.709Z,-7.06
2023-02-07T01:25:01.743Z,-6.89
2023-02-07T01:26:01.708Z,-6.28
2023-02-07T01:27:01.705Z,-6.28
2023-02-07T01:28:01.753Z,-6.72
2023-02-07T01:29:01.707Z,-6.44
2023-02-07T01:30:01.701Z,-6.72
2023-02-07T01:31:01.799Z,-6.61
2023-02-07T01:32:01.716Z,-6.72
2023-02-07T01:33:01.712Z,-6.72
2023-02-07T01:34:03.627Z,-6.89
2023-02-07T01:35:01.706Z,-6.61
2023-02-07T01:36:01.710Z,-6.11
2023-02-07T01:37:01.717Z,-6.44
2023-02-07T01:38:01.702Z,-6.11
2023-02-07T01:39:01.724Z,-6.28
2023-02-07T01:40:01.708Z,-6.44
2023-02-07T01:41:01.738Z,-6.61
2023-02-07T01:42:01.726Z,-7.17
2023-02-07T01:43:01.709Z,-6.61
2023-02-07T01:44:01.709Z,-6.61
2023-02-07T01:45:01.699Z,-6.72
2023-02-07T01:46:01.744Z,-6.72
2023-02-07T01:47:01.720Z,-7.06
2023-02-07T01:48:01.724Z,-7.33
2023-02-07T01:49:01.716Z,-8.11
2023-02-07T01:50:01.716Z,-7.83
2023-02-07T01:51:01.706Z,-7.94
2023-02-07T01:52:01.714Z,-7.94
2023-02-07T01:53:01.723Z,-7.83
2023-02-07T01:54:01.723Z,-8.11
2023-02-07T01:55:01.728Z,-7.44
2023-02-07T01:56:01.722Z,-7.33
2023-02-07T01:57:01.731Z,-7.17
2023-02-07T01:58:01.718Z,-7.06
2023-02-07T01:59:01.711Z,-7.17
2023-02-07T02:00:01.732Z,-6.72
2023-02-07T02:01:01.719Z,-7.33
2023-02-07T02:02:01.704Z,-7.17
2023-02-07T02:03:01.710Z,-7.44
2023-02-07T02:04:01.720Z,-7.67
2023-02-07T02:05:01.724Z,-7.83
2023-02-07T02:06:01.736Z,-7.83
2023-02-07T02:07:01.717Z,-7.83
2023-02-07T02:08:01.709Z,-7.83
2023-02-07T02:09:01.712Z,-7.67
2023-02-07T02:10:01.720Z,-7.83
2023-02-07T02:11:01.717Z,-7.94
2023-02-07T02:12:01.708Z,-7.83
2023-02-07T02:13:01.763Z,-7.44
2023-02-07T02:14:01.711Z,-7.83
2023-02-07T02:15:01.754Z,-7.67
2023-02-07T02:16:01.768Z,-7.83
2023-02-07T02:17:01.733Z,-7.44
2023-02-07T02:18:01.740Z,-7.44
2023-02-07T02:19:01.723Z,-7.44
2023-02-07T02:20:01.744Z,-7.33
2023-02-07T02:21:01.709Z,-7.67
2023-02-07T02:22:01.759Z,-7.33
2023-02-07T02:23:01.730Z,-7.44
2023-02-07T02:24:01.731Z,-7.17
2023-02-07T02:25:01.738Z,-7.17
2023-02-07T02:26:01.725Z,-7.17
2023-02-07T02:27:01.730Z,-7.17
2023-02-07T02:28:01.823Z,-6.61
2023-02-07T02:29:01.754Z,-6.72
2023-02-07T02:30:01.727Z,-6.72
2023-02-07T02:31:01.870Z,-6.89
2023-02-07T02:32:01.730Z,-7.06
2023-02-07T02:33:01.728Z,-7.17
2023-02-07T02:34:01.730Z,-7.44
2023-02-07T02:35:01.739Z,-8.28
2023-02-07T02:36:01.738Z,-7.67
2023-02-07T02:37:01.735Z,-8.11
2023-02-07T02:38:01.740Z,-7.94
2023-02-07T02:39:01.743Z,-8.11
2023-02-07T02:40:01.742Z,-7.94
2023-02-07T02:41:01.737Z,-8.11
2023-02-07T02:42:01.734Z,-7.94
2023-02-07T02:43:01.754Z,-7.67
2023-02-07T02:44:01.756Z,-7.67
2023-02-07T02:45:01.765Z,-8.44
2023-02-07T02:46:01.752Z,-8.61
2023-02-07T02:47:01.749Z,-7.94
2023-02-07T02:48:01.754Z,-7.94
2023-02-07T02:49:01.738Z,-8.28
2023-02-07T02:50:01.742Z,-8.78
2023-02-07T02:51:01.748Z,-8.28
2023-02-07T02:52:01.764Z,-8.44
2023-02-07T02:53:01.755Z,-9.22
2023-02-07T02:54:01.745Z,-9.06
2023-02-07T02:55:01.750Z,-8.78
2023-02-07T02:56:01.757Z,-8.89
2023-02-07T02:57:01.754Z,-8.61
2023-02-07T02:58:02.294Z,-8.44
2023-02-07T02:59:01.753Z,-8.78
2023-02-07T03:00:01.750Z,-8.44
2023-02-07T03:01:01.779Z,-8.28
2023-02-07T03:02:01.763Z,-7.83
2023-02-07T03:03:01.750Z,-7.94
2023-02-07T03:04:01.777Z,-8.11
2023-02-07T03:05:01.806Z,-7.83
2023-02-07T03:06:01.753Z,-7.94
2023-02-07T03:07:01.770Z,-8.11
2023-02-07T03:08:01.755Z,-7.94
2023-02-07T03:09:01.754Z,-8.44
2023-02-07T03:10:01.764Z,-8.28
2023-02-07T03:11:01.759Z,-8.11
2023-02-07T03:12:01.767Z,-8.11
2023-02-07T03:13:01.775Z,-8.28
2023-02-07T03:14:01.759Z,-8.89
2023-02-07T03:15:01.777Z,-8.28
2023-02-07T03:16:01.793Z,-8.11
2023-02-07T03:17:01.802Z,-7.94
2023-02-07T03:18:01.773Z,-8.11
2023-02-07T03:19:01.786Z,-8.11
2023-02-07T03:20:01.772Z,-8.28
2023-02-07T03:21:01.768Z,-8.61
2023-02-07T03:22:01.766Z,-8.44
2023-02-07T03:23:01.777Z,-8.28
2023-02-07T03:24:01.787Z,-8.11
2023-02-07T03:25:01.773Z,-8.28
2023-02-07T03:26:01.774Z,-7.94
2023-02-07T03:27:01.774Z,-8.11
2023-02-07T03:28:01.866Z,-8.11
2023-02-07T03:29:01.772Z,-8.61
2023-02-07T03:30:01.761Z,-8.61
2023-02-07T03:31:01.879Z,-8.61
2023-02-07T03:32:01.769Z,-8.44
2023-02-07T03:33:01.811Z,-8.11
2023-02-07T03:34:01.772Z,-7.94
2023-02-07T03:35:01.793Z,-7.94
2023-02-07T03:36:01.785Z,-8.11
2023-02-07T03:37:01.781Z,-7.94
2023-02-07T03:38:01.772Z,-8.61
2023-02-07T03:39:01.793Z,-8.44
2023-02-07T03:40:01.777Z,-8.44
2023-02-07T03:41:01.780Z,-8.44
2023-02-07T03:42:01.787Z,-8.61
2023-02-07T03:43:01.792Z,-8.89
2023-02-07T03:44:01.795Z,-9.22
2023-02-07T03:45:01.796Z,-9.06
2023-02-07T03:46:01.788Z,-8.89
2023-02-07T03:47:01.801Z,-8.89
2023-02-07T03:48:01.784Z,-8.78
2023-02-07T03:49:01.805Z,-7.94
2023-02-07T03:50:01.810Z,-8.28
2023-02-07T03:51:01.789Z,-7.94
2023-02-07T03:52:01.807Z,-8.28
2023-02-07T03:53:01.805Z,-8.11
2023-02-07T03:54:01.805Z,-8.44
2023-02-07T03:55:01.786Z,-8.44
2023-02-07T03:56:01.797Z,-7.94
2023-02-07T03:57:01.818Z,-7.94
2023-02-07T03:58:01.793Z,-8.61
2023-02-07T03:59:01.789Z,-8.44
2023-02-07T04:00:01.830Z,-8.61
2023-02-07T04:01:01.831Z,-8.61
2023-02-07T04:02:01.839Z,-8.78
2023-02-07T04:03:01.806Z,-9.06
2023-02-07T04:04:01.801Z,-8.89
2023-02-07T04:05:01.828Z,-8.78
2023-02-07T04:06:01.796Z,-8.44
2023-02-07T04:07:01.824Z,-8.61
2023-02-07T04:08:01.802Z,-9.06
2023-02-07T04:09:01.815Z,-9.39
2023-02-07T04:10:01.815Z,-9.22
2023-02-07T04:11:01.805Z,-9.06
2023-02-07T04:12:01.814Z,-9.06
2023-02-07T04:13:01.821Z,-8.61
2023-02-07T04:14:01.813Z,-9.06
2023-02-07T04:15:01.825Z,-9.22
2023-02-07T04:16:01.850Z,-9.06
2023-02-07T04:17:01.826Z,-8.89
2023-02-07T04:18:01.814Z,-9.39
2023-02-07T04:19:01.828Z,-9.56
2023-02-07T04:20:01.929Z,-9.22
2023-02-07T04:21:01.836Z,-9.22
2023-02-07T04:22:01.810Z,-8.89
2023-02-07T04:23:01.818Z,-9.22
2023-02-07T04:24:01.809Z,-8.61
2023-02-07T04:25:01.815Z,-8.78
2023-02-07T04:26:01.812Z,-8.61
2023-02-07T04:27:01.821Z,-8.78
2023-02-07T04:28:01.875Z,-8.78
2023-02-07T04:29:01.814Z,-8.89
2023-02-07T04:30:01.823Z,-9.06
2023-02-07T04:31:01.821Z,-9.06
2023-02-07T04:32:01.864Z,-8.44
2023-02-07T04:33:01.820Z,-8.89
2023-02-07T04:34:01.819Z,-9.06
2023-02-07T04:35:01.819Z,-8.89
2023-02-07T04:36:01.813Z,-9.06
2023-02-07T04:37:01.842Z,-8.61
2023-02-07T04:38:01.829Z,-9.06
2023-02-07T04:39:01.823Z,-9.56
2023-02-07T04:40:01.825Z,-9.22
2023-02-07T04:41:01.833Z,-9.22
2023-02-07T04:42:01.823Z,-8.89
2023-02-07T04:43:01.833Z,-8.28
2023-02-07T04:44:01.845Z,-7.94
2023-02-07T04:45:01.834Z,-8.44
2023-02-07T04:46:01.927Z,-8.78
2023-02-07T04:47:01.828Z,-8.78
2023-02-07T04:48:01.833Z,-9.06
2023-02-07T04:49:01.823Z,-8.89
2023-02-07T04:50:01.833Z,-8.89
2023-02-07T04:51:01.834Z,-9.06
2023-02-07T04:52:01.832Z,-9.06
2023-02-07T04:53:01.856Z,-8.44
2023-02-07T04:54:01.834Z,-8.44
2023-02-07T04:55:01.847Z,-8.61
2023-02-07T04:56:01.848Z,-8.78
2023-02-07T04:57:01.833Z,-8.89
2023-02-07T04:58:01.841Z,-9.22
2023-02-07T04:59:01.839Z,-9.22
2023-02-07T05:00:01.853Z,-9.22
2023-02-07T05:01:01.864Z,-8.89
2023-02-07T05:02:01.835Z,-8.89
2023-02-07T05:03:01.839Z,-9.39
2023-02-07T05:04:01.846Z,-9.39
2023-02-07T05:05:01.847Z,-9.22
2023-02-07T05:06:01.846Z,-9.39
2023-02-07T05:07:01.840Z,-8.89
2023-02-07T05:08:01.847Z,-9.22
2023-02-07T05:09:01.868Z,-9.06
2023-02-07T05:10:01.853Z,-8.89
2023-02-07T05:11:01.855Z,-9.06
2023-02-07T05:12:01.841Z,-9.06
2023-02-07T05:13:01.859Z,-9.22
2023-02-07T05:14:01.855Z,-8.89
2023-02-07T05:15:01.871Z,-9.06
2023-02-07T05:16:01.847Z,-9.06
2023-02-07T05:17:01.877Z,-9.22
2023-02-07T05:18:01.854Z,-9.39
2023-02-07T05:19:01.858Z,-9.39
2023-02-07T05:20:01.850Z,-9.39
2023-02-07T05:21:01.859Z,-9.39
2023-02-07T05:22:01.844Z,-9.56
2023-02-07T05:23:01.855Z,-9.39
2023-02-07T05:24:01.867Z,-9.39
2023-02-07T05:25:01.882Z,-9.56
2023-02-07T05:26:01.861Z,-9.56
2023-02-07T05:27:01.854Z,-10
2023-02-07T05:28:01.914Z,-9.72
2023-02-07T05:29:01.866Z,-10
2023-02-07T05:30:01.866Z,-10.33
2023-02-07T05:31:01.946Z,-10
2023-02-07T05:32:01.867Z,-10.33
2023-02-07T05:33:01.866Z,-10
2023-02-07T05:34:01.860Z,-10
2023-02-07T05:35:01.858Z,-10.33
2023-02-07T05:36:01.856Z,-9.83
2023-02-07T05:37:01.865Z,-9.39
2023-02-07T05:38:01.881Z,-8.89
2023-02-07T05:39:02.767Z,-9.06
2023-02-07T05:40:01.859Z,-9.22
2023-02-07T05:41:01.881Z,-9.39
2023-02-07T05:42:01.869Z,-8.89
2023-02-07T05:43:01.854Z,-9.06
2023-02-07T05:44:01.866Z,-8.89
2023-02-07T05:45:01.878Z,-8.78
2023-02-07T05:46:01.922Z,-8.44
2023-02-07T05:47:01.875Z,-8.44
2023-02-07T05:48:01.873Z,-9.22
2023-02-07T05:49:01.886Z,-8.89
2023-02-07T05:50:01.876Z,-9.39
2023-02-07T05:51:01.874Z,-9.56
2023-02-07T05:52:01.878Z,-9.72
2023-02-07T05:53:01.881Z,-9.56
2023-02-07T05:54:01.877Z,-9.83
2023-02-07T05:55:01.875Z,-9.56
2023-02-07T05:56:01.866Z,-9.72
2023-02-07T05:57:01.894Z,-9.72
2023-02-07T05:58:01.868Z,-9.56
2023-02-07T05:59:01.876Z,-10
2023-02-07T06:00:01.872Z,-9.39
2023-02-07T06:01:01.871Z,-9.72
2023-02-07T06:02:01.880Z,-9.72
2023-02-07T06:03:01.878Z,-9.72
2023-02-07T06:04:01.882Z,-9.22
2023-02-07T06:05:01.885Z,-9.22
2023-02-07T06:06:01.874Z,-10
2023-02-07T06:07:01.875Z,-9.83
2023-02-07T06:08:01.876Z,-9.83
2023-02-07T06:09:01.879Z,-10
2023-02-07T06:10:01.866Z,-9.72
2023-02-07T06:11:01.876Z,-10.17
2023-02-07T06:12:04.248Z,-9.72
2023-02-07T06:13:01.892Z,-10
2023-02-07T06:14:01.881Z,-10.17
2023-02-07T06:15:01.888Z,-10
2023-02-07T06:16:01.959Z,-10.17
2023-02-07T06:17:01.885Z,-9.72
2023-02-07T06:18:01.883Z,-9.83
2023-02-07T06:19:01.882Z,-9.83
2023-02-07T06:20:01.895Z,-9.83
2023-02-07T06:21:01.885Z,-9.72
2023-02-07T06:22:01.876Z,-10
2023-02-07T06:23:01.886Z,-9.39
2023-02-07T06:24:01.882Z,-9.83
2023-02-07T06:25:01.874Z,-10.17
2023-02-07T06:26:01.875Z,-10.33
2023-02-07T06:27:01.891Z,-10.5
2023-02-07T06:28:01.925Z,-10.5
2023-02-07T06:29:01.913Z,-10.17
2023-02-07T06:30:01.887Z,-10.33
2023-02-07T06:31:01.946Z,-10.17
2023-02-07T06:32:01.880Z,-10.5
2023-02-07T06:33:01.894Z,-10
2023-02-07T06:34:01.889Z,-10
2023-02-07T06:35:01.896Z,-9.56
2023-02-07T06:36:01.895Z,-9.72
2023-02-07T06:37:01.875Z,-9.83
2023-02-07T06:38:01.889Z,-9.39
2023-02-07T06:39:01.879Z,-9.56
2023-02-07T06:40:01.874Z,-9.56
2023-02-07T06:41:01.888Z,-9.56
2023-02-07T06:42:01.877Z,-9.72
2023-02-07T06:43:01.875Z,-9.56
2023-02-07T06:44:01.886Z,-10.17
2023-02-07T06:45:01.935Z,-9.56
2023-02-07T06:46:01.910Z,-9.22
2023-02-07T06:47:01.890Z,-9.22
2023-02-07T06:48:01.888Z,-9.39
2023-02-07T06:49:01.893Z,-9.39
2023-02-07T06:50:01.888Z,-9.39
2023-02-07T06:51:01.892Z,-9.83
2023-02-07T06:52:01.893Z,-9.22
2023-02-07T06:53:01.920Z,-9.83
2023-02-07T06:54:01.894Z,-9.72
2023-02-07T06:55:01.901Z,-8.89
2023-02-07T06:56:01.910Z,-9.06
2023-02-07T06:57:01.896Z,-9.06
2023-02-07T06:58:01.898Z,-9.39
2023-02-07T06:59:01.893Z,-9.39
2023-02-07T07:00:01.900Z,-9.5
2023-02-07T07:01:01.948Z,-9.06
2023-02-07T07:02:01.930Z,-9.11
2023-02-07T07:03:01.981Z,-8.61
2023-02-07T07:04:01.907Z,-8.17
2023-02-07T07:05:01.888Z,-7.83
2023-02-07T07:06:01.896Z,-8.17
2023-02-07T07:07:01.912Z,-7.83
2023-02-07T07:08:01.923Z,-7.72
2023-02-07T07:09:01.912Z,-7.83
2023-02-07T07:10:01.970Z,-8.17
2023-02-07T07:11:01.899Z,-8
2023-02-07T07:12:01.920Z,-8.17
2023-02-07T07:13:01.901Z,-8.17
2023-02-07T07:14:01.909Z,-8.17
2023-02-07T07:15:01.899Z,-8.28
2023-02-07T07:16:01.911Z,-8.17
2023-02-07T07:17:01.945Z,-7.83
2023-02-07T07:18:01.916Z,-8.17
2023-02-07T07:19:01.912Z,-8.17
2023-02-07T07:20:01.927Z,-7.83
2023-02-07T07:21:01.917Z,-7.56
2023-02-07T07:22:01.927Z,-7.5
2023-02-07T07:23:01.938Z,-7.83
2023-02-07T07:24:01.924Z,-7.67
2023-02-07T07:25:01.921Z,-7.67
2023-02-07T07:26:01.934Z,-7.5
2023-02-07T07:27:01.927Z,-7.67
2023-02-07T07:28:01.974Z,-7.33
2023-02-07T07:29:01.925Z,-7.33
2023-02-07T07:30:01.920Z,-7.17
2023-02-07T07:31:02.012Z,-7.67
2023-02-07T07:32:01.926Z,-8.28
2023-02-07T07:33:01.959Z,-8.17
2023-02-07T07:34:01.962Z,-7.67
2023-02-07T07:35:01.925Z,-7.5
2023-02-07T07:36:01.961Z,-8
2023-02-07T07:37:01.932Z,-8
2023-02-07T07:38:01.930Z,-8
2023-02-07T07:39:01.945Z,-8.17
2023-02-07T07:40:01.929Z,-8.17
2023-02-07T07:41:01.930Z,-8.28
2023-02-07T07:42:01.921Z,-7.5
2023-02-07T07:43:01.935Z,-7.5
2023-02-07T07:44:01.940Z,-7.06
2023-02-07T07:45:01.935Z,-7.06
2023-02-07T07:46:01.942Z,-7.06
2023-02-07T07:47:01.930Z,-6.78
2023-02-07T07:48:01.951Z,-6.78
2023-02-07T07:49:01.958Z,-6.78
2023-02-07T07:50:01.966Z,-6.78
2023-02-07T07:51:01.935Z,-6.78
2023-02-07T07:52:01.932Z,-6.44
2023-02-07T07:53:01.930Z,-6.61
2023-02-07T07:54:01.935Z,-6.44
2023-02-07T07:55:01.926Z,-6.44
2023-02-07T07:56:01.934Z,-6.61
2023-02-07T07:57:01.932Z,-6.61
2023-02-07T07:58:01.938Z,-6.44
2023-02-07T07:59:05.890Z,-6.44
2023-02-07T08:00:01.951Z,-6.28
2023-02-07T08:01:02.056Z,-6.28
2023-02-07T08:02:01.937Z,-6.28
2023-02-07T08:03:01.938Z,-6
2023-02-07T08:04:01.961Z,-6.28
2023-02-07T08:05:01.970Z,-6.28
2023-02-07T08:06:01.935Z,-6.11
2023-02-07T08:07:01.946Z,-6.11
2023-02-07T08:08:01.946Z,-6
2023-02-07T08:09:01.932Z,-6
2023-02-07T08:10:01.930Z,-5.83
2023-02-07T08:11:01.950Z,-6.11
2023-02-07T08:12:01.941Z,-5.72
2023-02-07T08:13:01.939Z,-5.56
2023-02-07T08:14:01.948Z,-5.56
2023-02-07T08:15:01.932Z,-5.39
2023-02-07T08:16:02.017Z,-5.39
2023-02-07T08:17:01.944Z,-5.39
2023-02-07T08:18:01.934Z,-5.39
2023-02-07T08:19:01.944Z,-5.22
2023-02-07T08:20:01.941Z,-4.94
2023-02-07T08:21:01.965Z,-5.39
2023-02-07T08:22:01.952Z,-4.78
2023-02-07T08:23:01.949Z,-5.22
2023-02-07T08:24:01.945Z,-5.06
2023-02-07T08:25:01.954Z,-5.06
2023-02-07T08:26:01.944Z,-4.94
2023-02-07T08:27:01.943Z,-5.06
2023-02-07T08:28:04.326Z,-5.06
2023-02-07T08:29:01.960Z,-5.39
2023-02-07T08:30:01.951Z,-5.39
2023-02-07T08:31:01.970Z,-5.56
2023-02-07T08:32:01.996Z,-6.28
2023-02-07T08:33:01.940Z,-6
2023-02-07T08:34:01.934Z,-5.72
2023-02-07T08:35:01.945Z,-5.39
2023-02-07T08:36:01.957Z,-4.94
2023-02-07T08:37:01.988Z,-4.78
2023-02-07T08:38:01.950Z,-4.61
2023-02-07T08:39:01.961Z,-5.39
2023-02-07T08:40:01.943Z,-4.61
2023-02-07T08:41:01.981Z,-4.94
2023-02-07T08:42:01.952Z,-5.06
2023-02-07T08:43:01.947Z,-5.39
2023-02-07T08:44:01.957Z,-6.11
2023-02-07T08:45:02.008Z,-5.89
2023-02-07T08:46:02.160Z,-5.83
2023-02-07T08:47:01.981Z,-6.44
2023-02-07T08:48:01.954Z,-6
2023-02-07T08:49:01.953Z,-6.28
2023-02-07T08:50:01.986Z,-6.33
2023-02-07T08:51:01.949Z,-6.28
2023-02-07T08:52:01.958Z,-6.11
2023-02-07T08:53:01.968Z,-6.11
2023-02-07T08:54:01.947Z,-6.33
2023-02-07T08:55:01.954Z,-6.33
2023-02-07T08:56:01.964Z,-6.44
2023-02-07T08:57:01.963Z,-6.28
2023-02-07T08:58:02.069Z,-5.89
2023-02-07T08:59:01.960Z,-6.5
2023-02-07T09:00:01.949Z,-6.33
2023-02-07T09:01:02.038Z,-5.94
2023-02-07T09:02:02.010Z,-6
2023-02-07T09:03:01.958Z,-5.83
2023-02-07T09:04:01.958Z,-6
2023-02-07T09:05:01.963Z,-6
2023-02-07T09:06:01.950Z,-6
2023-02-07T09:07:01.961Z,-5.83
2023-02-07T09:08:01.967Z,-5.72
2023-02-07T09:09:01.988Z,-5.72
2023-02-07T09:10:01.957Z,-6
2023-02-07T09:11:02.138Z,-5.72
2023-02-07T09:12:01.961Z,-5.83
2023-02-07T09:13:01.963Z,-5.56
2023-02-07T09:14:01.967Z,-5.72
2023-02-07T09:15:01.957Z,-5.39
2023-02-07T09:16:01.964Z,-5.22
2023-02-07T09:17:01.961Z,-4.94
2023-02-07T09:18:01.953Z,-5.22
2023-02-07T09:19:01.968Z,-5.22
2023-02-07T09:20:01.960Z,-5.72
2023-02-07T09:21:01.964Z,-5.06
2023-02-07T09:22:01.955Z,-5.39
2023-02-07T09:23:01.960Z,-4.94
2023-02-07T09:24:01.962Z,-5.22
2023-02-07T09:25:01.983Z,-4.78
2023-02-07T09:26:01.966Z,-4.5
2023-02-07T09:27:01.956Z,-4.5
2023-02-07T09:28:02.019Z,-4.44
2023-02-07T09:29:01.953Z,-3.89
2023-02-07T09:30:01.954Z,-3.94
2023-02-07T09:31:03.946Z,-3.89
2023-02-07T09:32:01.972Z,-3.33
2023-02-07T09:33:01.960Z,-3.17
2023-02-07T09:34:01.975Z,-2.78
2023-02-07T09:35:01.965Z,-2.72
2023-02-07T09:36:01.967Z,-3.28
2023-02-07T09:37:01.955Z,-3.89
2023-02-07T09:38:01.968Z,-3.72
2023-02-07T09:39:01.965Z,-4.22
2023-02-07T09:40:01.955Z,-3.89
2023-02-07T09:41:01.992Z,-3.72
2023-02-07T09:42:02.963Z,-3.72
2023-02-07T09:43:02.110Z,-3.44
2023-02-07T09:44:02.219Z,-3.89
2023-02-07T09:45:02.365Z,-3.61
2023-02-07T09:46:02.045Z,-3.89
2023-02-07T09:47:01.990Z,-3.89
2023-02-07T09:48:01.985Z,-4.33
2023-02-07T09:49:01.964Z,-4.06
2023-02-07T09:50:01.959Z,-3.89
2023-02-07T09:51:01.981Z,-4.33
2023-02-07T09:52:01.983Z,-4.78
2023-02-07T09:53:02.009Z,-4.22
2023-02-07T09:54:01.973Z,-4.06
2023-02-07T09:55:01.980Z,-3.44
2023-02-07T09:56:01.975Z,-2.72
2023-02-07T09:57:02.007Z,-2.44
2023-02-07T09:58:01.959Z,-2.17
2023-02-07T09:59:01.966Z,-1.67
2023-02-07T10:00:02.015Z,-1.89
2023-02-07T10:01:02.045Z,-2.11
2023-02-07T10:02:01.977Z,-1.89
2023-02-07T10:03:01.968Z,-1.72
2023-02-07T10:04:01.976Z,-2.17
2023-02-07T10:05:01.978Z,-2.17
2023-02-07T10:06:12.629Z,-3.44
2023-02-07T10:07:01.966Z,-2.72
2023-02-07T10:08:01.977Z,-3.44
2023-02-07T10:09:01.981Z,-3.44
2023-02-07T10:10:01.973Z,-3.89
2023-02-07T10:11:01.968Z,-3.72
2023-02-07T10:12:01.970Z,-3.89
2023-02-07T10:13:02.009Z,-4.22
2023-02-07T10:14:01.977Z,-4.33
2023-02-07T10:15:01.972Z,-3.89
2023-02-07T10:16:02.023Z,-4.33
2023-02-07T10:17:01.980Z,-4.33
2023-02-07T10:18:02.184Z,-4.61
2023-02-07T10:19:01.967Z,-4.06
2023-02-07T10:20:01.976Z,-4.33
2023-02-07T10:21:02.004Z,-4.22
2023-02-07T10:22:01.976Z,-4.61
2023-02-07T10:23:01.974Z,-4.33
2023-02-07T10:24:02.020Z,-4.33
2023-02-07T10:25:01.986Z,-4.06
2023-02-07T10:26:01.967Z,-4.22
2023-02-07T10:27:01.971Z,-3.72
2023-02-07T10:28:02.034Z,-4.22
2023-02-07T10:29:02.009Z,-3.89
2023-02-07T10:30:01.980Z,-4.06
2023-02-07T10:31:02.086Z,-3.89
2023-02-07T10:32:01.980Z,-3.72
2023-02-07T10:33:01.992Z,-3.44
2023-02-07T10:34:01.983Z,-3.06
2023-02-07T10:35:02.012Z,-3.28
2023-02-07T10:36:01.978Z,-3.44
2023-02-07T10:37:01.971Z,-3.61
2023-02-07T10:38:02.006Z,-3.61
2023-02-07T10:39:08.760Z,-3.44
2023-02-07T10:40:01.991Z,-3.89
2023-02-07T10:41:01.987Z,-3.72
2023-02-07T10:42:01.986Z,-4.06
2023-02-07T10:43:02.062Z,-3.44
2023-02-07T10:44:01.983Z,-3.06
2023-02-07T10:45:02.005Z,-2.72
2023-02-07T10:46:06.081Z,-2.61
2023-02-07T10:47:01.979Z,-2.72
2023-02-07T10:48:01.992Z,-3.06
2023-02-07T10:49:01.998Z,-3.61
2023-02-07T10:50:01.986Z,-3.44
2023-02-07T10:51:01.994Z,-3.44
2023-02-07T10:52:01.996Z,-3.44
2023-02-07T10:53:01.986Z,-3.44
2023-02-07T10:54:01.992Z,-3.17
2023-02-07T10:55:01.988Z,-3.17
2023-02-07T10:56:02.007Z,-3.28
2023-02-07T10:57:02.899Z,-3.06
2023-02-07T10:58:08.702Z,-2.44
2023-02-07T10:59:01.999Z,-3.06
2023-02-07T11:00:01.986Z,-3.06
2023-02-07T11:01:02.019Z,-3.44
2023-02-07T11:02:01.990Z,-3.61
2023-02-07T11:03:02.034Z,-3.44
2023-02-07T11:04:01.992Z,-3.28
2023-02-07T11:05:02.017Z,-3.44
2023-02-07T11:06:01.985Z,-3.17
2023-02-07T11:07:01.989Z,-2.89
2023-02-07T11:08:01.987Z,-2.61
2023-02-07T11:09:02.006Z,-2.61
2023-02-07T11:10:01.990Z,-2.61
2023-02-07T11:11:01.995Z,-2.61
2023-02-07T11:12:02.011Z,-2.44
2023-02-07T11:13:02.008Z,-2.61
2023-02-07T11:14:01.992Z,-2.72
2023-02-07T11:15:02.015Z,-1.67
2023-02-07T11:16:02.046Z,-0.83
2023-02-07T11:17:02.036Z,-0.67
2023-02-07T11:18:01.999Z,-0.56
2023-02-07T11:19:02.012Z,-1.28
2023-02-07T11:20:01.990Z,-2
2023-02-07T11:21:02.005Z,-2.28
2023-02-07T11:22:02.007Z,-2.61
2023-02-07T11:23:02.006Z,-3.06
2023-02-07T11:24:02.011Z,-2.17
2023-02-07T11:25:02.001Z,-2.61
2023-02-07T11:26:01.992Z,-2.61
2023-02-07T11:27:02.021Z,-2.89
2023-02-07T11:28:02.091Z,-2.44
2023-02-07T11:29:02.000Z,-2.61
2023-02-07T11:30:01.997Z,-2.89
2023-02-07T11:31:02.202Z,-1.67
2023-02-07T11:32:02.006Z,-1.28
2023-02-07T11:33:02.040Z,-0.39
2023-02-07T11:34:02.015Z,-0.39
2023-02-07T11:35:01.999Z,0.44
2023-02-07T11:36:02.024Z,0.89
2023-02-07T11:37:02.004Z,0.28
2023-02-07T11:38:03.590Z,0.44
2023-02-07T11:39:01.994Z,0.89
2023-02-07T11:40:01.998Z,0.89
2023-02-07T11:41:02.005Z,1.06
2023-02-07T11:42:02.021Z,1.5
2023-02-07T11:43:02.001Z,1.33
2023-02-07T11:44:02.015Z,1.33
2023-02-07T11:45:02.019Z,1.61
2023-02-07T11:46:02.000Z,0.61
2023-02-07T11:47:02.014Z,1.33
2023-02-07T11:48:02.026Z,1.61
2023-02-07T11:49:02.020Z,0.28
2023-02-07T11:50:02.024Z,-0.83
2023-02-07T11:51:02.004Z,-1.56
2023-02-07T11:52:02.004Z,-2
2023-02-07T11:53:02.015Z,-1.67
2023-02-07T11:54:02.020Z,-1.67
2023-02-07T11:55:01.999Z,-2
2023-02-07T11:56:02.025Z,-1.67
2023-02-07T11:57:02.019Z,-1.56
2023-02-07T11:58:02.010Z,-0.83
2023-02-07T11:59:02.011Z,-1
2023-02-07T12:00:02.006Z,-0.83
2023-02-07T12:01:02.014Z,-0.83
2023-02-07T12:02:02.103Z,-0.83
2023-02-07T12:03:02.017Z,0
2023-02-07T12:04:02.022Z,-0.39
2023-02-07T12:05:02.119Z,-0.67
2023-02-07T12:06:02.026Z,-0.56
2023-02-07T12:07:02.020Z,-1
2023-02-07T12:08:03.398Z,-1.11
2023-02-07T12:09:02.021Z,-0.83
2023-02-07T12:10:02.032Z,-1.11
2023-02-07T12:11:02.018Z,-1.28
2023-02-07T12:12:02.045Z,-1.56
2023-02-07T12:13:02.030Z,-1.56
2023-02-07T12:14:02.885Z,-1.83
2023-02-07T12:15:02.016Z,-1.56
2023-02-07T12:16:02.047Z,-1.61
2023-02-07T12:17:02.028Z,-1.44
2023-02-07T12:18:02.022Z,-1.44
2023-02-07T12:19:02.025Z,-1.44
2023-02-07T12:20:03.158Z,-1.17
2023-02-07T12:21:02.051Z,-1.56
2023-02-07T12:22:02.019Z,-1.28
2023-02-07T12:23:16.313Z,-1.28
2023-02-07T12:24:02.024Z,-1.28
2023-02-07T12:25:02.019Z,-1.11
2023-02-07T12:26:02.032Z,-0.67
2023-02-07T12:27:02.037Z,-0.28
2023-02-07T12:28:02.043Z,-1
2023-02-07T12:29:12.641Z,-1
2023-02-07T12:30:02.028Z,-0.67
2023-02-07T12:31:02.022Z,-0.72
2023-02-07T12:32:02.164Z,-0.89
2023-02-07T12:33:02.040Z,-0.56
2023-02-07T12:34:02.040Z,-0.39
2023-02-07T12:35:02.063Z,-0.56
2023-02-07T12:36:02.343Z,-0.72
2023-02-07T12:37:04.377Z,-1
2023-02-07T12:38:02.045Z,-1
2023-02-07T12:39:02.052Z,-0.56
2023-02-07T12:40:02.039Z,-0.56
2023-02-07T12:41:02.033Z,-0.17
2023-02-07T12:42:02.037Z,0
2023-02-07T12:43:02.726Z,0
2023-02-07T12:44:03.170Z,-0.28
2023-02-07T12:45:02.050Z,0.28
2023-02-07T12:46:02.107Z,-0.17
2023-02-07T12:47:02.037Z,-0.28
2023-02-07T12:48:02.039Z,-0.56
2023-02-07T12:49:02.054Z,0.44
2023-02-07T12:50:02.065Z,0.56
2023-02-07T12:51:02.037Z,0.11
2023-02-07T12:52:02.041Z,0
2023-02-07T12:53:02.121Z,-0.17
2023-02-07T12:54:02.047Z,-0.17
2023-02-07T12:55:02.063Z,-0.44
2023-02-07T12:56:02.040Z,-0.56
2023-02-07T12:57:02.037Z,-0.56